Time;durP1;ratioP1;P1;durP2;ratioP2;P2;SDS_P1;SDS_P2;PMS_P1;PMS_P2;Temp;Humidity;BMP_temperature;BMP_pressure;BME280_temperature;BME280_humidity;BME280_pressure;Samples;Min_cycle;Max_cycle;Signal;HPM_P1;HPM_P2
2023/06/11 00:01:26;;;;;;;;;;;;;;;23.30;57.09;99399.59;5266447;27;33183;-80
2023/06/11 00:03:56;;;;;;;;;;;;;;;23.31;56.96;99406.66;5302424;27;33489;-80
2023/06/11 00:06:23;;;;;;;;;;;;;;;23.32;56.98;99406.53;5302384;27;34269;-80
2023/06/11 00:08:51;;;;;;;;;;;;;;;23.23;57.59;99412.84;5284248;27;33481;-80
2023/06/11 00:11:20;;;;;;;;;;;;;;;23.34;57.03;99419.81;5283972;27;33410;-80
2023/06/11 00:13:47;;;;;;;;;;;;;;;23.36;57.21;99410.59;5302425;27;34361;-80
2023/06/11 00:16:15;;;;;;;;;;;;;;;23.28;57.48;99418.62;5284202;27;34691;-80
2023/06/11 00:18:43;;;;;;;;;;;;;;;23.33;57.89;99421.69;5300771;27;34748;-80
2023/06/11 00:21:11;;;;;;;;;;;;;;;23.36;58.13;99412.41;5305725;26;34598;-79
2023/06/11 00:23:38;;;;;;;;;;;;;;;23.45;58.00;99420.44;5306176;26;33034;-79
2023/06/11 00:26:06;;;;;;;;;;;;;;;23.48;57.70;99414.69;5306287;26;34930;-79
2023/06/11 00:28:34;;;;;;;;;;;;;;;23.37;58.23;99417.66;5287851;26;33112;-79
2023/06/11 00:31:03;;;;;;;;;;;;;;;23.39;58.31;99421.03;5287792;26;33416;-79
2023/06/11 00:33:31;;;;;;;;;;;;;;;23.34;58.07;99425.22;5324577;26;33441;-79
2023/06/11 00:35:59;;;;;;;;;;;;;;;23.40;58.04;99419.19;5323909;26;32767;-80
2023/06/11 00:38:26;;;;;;;;;;;;;;;23.54;57.87;99417.75;5343529;26;35064;-79
2023/06/11 00:40:54;;;;;;;;;;;;;;;23.18;59.11;99424.09;5305831;26;34282;-79
2023/06/11 00:43:22;;;;;;;;;;;;;;;23.50;58.04;99422.66;5305608;26;32610;-79
2023/06/11 00:45:50;;;;;;;;;;;;;;;23.30;58.84;99421.97;5324358;26;33731;-80
2023/06/11 00:48:22;;;;;;;;;;;;;;;23.08;59.76;99417.97;5287885;26;33145;-80
2023/06/11 00:50:49;;;;;;;;;;;;;;;23.18;59.28;99424.09;5305731;26;32981;-80
2023/06/11 00:53:18;;;;;;;;;;;;;;;23.10;59.38;99426.72;5305635;26;32432;-81
2023/06/11 00:55:45;;;;;;;;;;;;;;;23.04;59.50;99432.75;5305623;26;35080;-80
2023/06/11 00:58:13;;;;;;;;;;;;;;;22.75;60.33;99431.09;5305849;26;33003;-80
2023/06/11 01:00:42;;;;;;;;;;;;;;;22.73;59.46;99438.47;5323997;26;33705;-80
2023/06/11 01:03:10;;;;;;;;;;;;;;;22.97;58.66;99432.50;5305932;26;34058;-80
2023/06/11 01:05:43;;;;;;;;;;;;;;;22.86;58.41;99430.03;5323606;26;33698;-80
2023/06/11 01:08:16;;;;;;;;;;;;;;;22.97;58.55;99429.81;5307255;26;34925;-80
2023/06/11 01:10:45;;;;;;;;;;;;;;;23.22;57.07;99428.19;5288356;26;32699;-80
2023/06/11 01:13:13;;;;;;;;;;;;;;;23.23;57.23;99427.16;5287590;26;31605;-81
2023/06/11 01:15:40;;;;;;;;;;;;;;;22.98;58.32;99425.28;5323957;26;33802;-81
2023/06/11 01:18:18;;;;;;;;;;;;;;;23.47;54.86;99422.94;5283597;27;32997;-81
2023/06/11 01:20:51;;;;;;;;;;;;;;;23.19;55.57;99422.25;5302779;27;34305;-81
2023/06/11 01:23:31;;;;;;;;;;;;;;;23.11;55.42;99425.72;5320443;27;33140;-81
2023/06/11 01:25:59;;;;;;;;;;;;;;;23.27;54.95;99424.16;5283473;27;34150;-81
2023/06/11 01:28:28;;;;;;;;;;;;;;;23.12;55.21;99419.34;5319779;27;33910;-81
2023/06/11 01:30:57;;;;;;;;;;;;;;;23.19;55.24;99417.69;5283957;27;33816;-80
2023/06/11 01:33:26;;;;;;;;;;;;;;;23.01;55.65;99416.88;5301906;27;33459;-80
2023/06/11 01:35:58;;;;;;;;;;;;;;;23.04;55.82;99427.34;5320549;27;33969;-81
2023/06/11 01:38:30;;;;;;;;;;;;;;;23.05;56.16;99423.66;5302509;27;34046;-80
2023/06/11 01:40:58;;;;;;;;;;;;;;;23.17;55.85;99430.50;5302521;27;33247;-80
2023/06/11 01:43:30;;;;;;;;;;;;;;;23.28;54.42;99428.53;5320108;27;33418;-80
2023/06/11 01:45:58;;;;;;;;;;;;;;;23.20;54.48;99430.16;5319695;27;33835;-80
2023/06/11 01:48:25;;;;;;;;;;;;;;;23.36;53.93;99432.16;5301847;27;34054;-80
2023/06/11 01:50:53;;;;;;;;;;;;;;;22.97;55.79;99437.03;5319741;27;34029;-80
2023/06/11 01:53:21;;;;;;;;;;;;;;;23.05;55.62;99439.81;5301584;27;33674;-81
2023/06/11 01:55:49;;;;;;;;;;;;;;;22.97;54.98;99443.25;5301723;27;33687;-81
2023/06/11 01:58:18;;;;;;;;;;;;;;;22.94;55.24;99437.37;5301502;27;34202;-80
2023/06/11 02:00:47;;;;;;;;;;;;;;;22.97;55.13;99439.72;5301634;27;34263;-80
2023/06/11 02:03:15;;;;;;;;;;;;;;;23.04;54.87;99438.13;5302107;27;34114;-80
2023/06/11 02:05:43;;;;;;;;;;;;;;;22.79;55.66;99446.94;5265550;27;33257;-81
2023/06/11 02:08:11;;;;;;;;;;;;;;;22.86;55.81;99445.31;5301093;27;34968;-80
2023/06/11 02:10:38;;;;;;;;;;;;;;;22.93;55.08;99443.72;5301990;27;34237;-81
2023/06/11 02:13:06;;;;;;;;;;;;;;;22.88;55.10;99443.31;5301297;27;33599;-80
2023/06/11 02:15:33;;;;;;;;;;;;;;;22.61;55.64;99445.09;5282738;27;33977;-80
2023/06/11 02:18:02;;;;;;;;;;;;;;;22.95;54.60;99450.66;5283649;27;33427;-81
2023/06/11 02:20:29;;;;;;;;;;;;;;;23.13;54.16;99445.28;5283769;27;33338;-80
2023/06/11 02:22:57;;;;;;;;;;;;;;;23.19;53.38;99452.72;5301448;27;32993;-80
2023/06/11 02:25:24;;;;;;;;;;;;;;;23.18;53.49;99442.94;5319915;27;34255;-80
2023/06/11 02:27:53;;;;;;;;;;;;;;;23.30;52.88;99446.22;5301649;27;33819;-80
2023/06/11 02:30:20;;;;;;;;;;;;;;;23.02;53.81;99440.09;5320032;27;34251;-80
2023/06/11 02:32:48;;;;;;;;;;;;;;;23.19;53.35;99450.03;5317405;27;32674;-80
2023/06/11 02:35:16;;;;;;;;;;;;;;;22.90;54.55;99441.38;5298782;27;34759;-80
2023/06/11 02:37:43;;;;;;;;;;;;;;;22.74;55.04;99448.25;5301154;27;33101;-81
2023/06/11 02:40:11;;;;;;;;;;;;;;;22.90;54.28;99438.66;5282952;27;33397;-81
2023/06/11 02:42:39;;;;;;;;;;;;;;;23.13;53.72;99439.03;5283203;27;33216;-81
2023/06/11 02:45:07;;;;;;;;;;;;;;;23.06;53.80;99441.50;5301631;27;34158;-80
2023/06/11 02:47:34;;;;;;;;;;;;;;;23.04;53.29;99443.50;5301757;27;34357;-81
2023/06/11 02:50:02;;;;;;;;;;;;;;;22.90;53.88;99439.50;5301573;27;34199;-80
2023/06/11 02:52:30;;;;;;;;;;;;;;;22.93;53.24;99446.41;5301548;27;33414;-80
2023/06/11 02:54:57;;;;;;;;;;;;;;;23.02;53.30;99437.41;5319873;27;34169;-80
2023/06/11 02:57:25;;;;;;;;;;;;;;;23.15;52.82;99434.34;5301453;27;33414;-80
2023/06/11 02:59:52;;;;;;;;;;;;;;;22.96;53.83;99440.75;5301093;27;33781;-80
2023/06/11 03:02:20;;;;;;;;;;;;;;;22.90;54.14;99435.97;5301567;27;34094;-80
2023/06/11 03:04:51;;;;;;;;;;;;;;;22.90;54.17;99441.38;5284766;27;32996;-80
2023/06/11 03:07:19;;;;;;;;;;;;;;;23.19;53.08;99444.63;5301186;27;35438;-80
2023/06/11 03:09:47;;;;;;;;;;;;;;;22.93;53.91;99441.03;5301336;27;34884;-80
2023/06/11 03:12:15;;;;;;;;;;;;;;;22.89;54.20;99440.53;5301340;27;32987;-80
2023/06/11 03:14:44;;;;;;;;;;;;;;;22.77;54.39;99447.09;5283528;27;32745;-80
2023/06/11 03:17:11;;;;;;;;;;;;;;;22.91;53.94;99451.13;5319820;27;34346;-80
2023/06/11 03:19:39;;;;;;;;;;;;;;;22.98;54.03;99447.69;5300876;27;33652;-80
2023/06/11 03:22:06;;;;;;;;;;;;;;;22.88;54.60;99444.19;5301654;27;33661;-80
2023/06/11 03:24:35;;;;;;;;;;;;;;;23.08;53.72;99444.91;5301293;27;33875;-80
2023/06/11 03:27:04;;;;;;;;;;;;;;;23.13;52.97;99447.13;5319997;27;34670;-81
2023/06/11 03:29:31;;;;;;;;;;;;;;;22.91;53.82;99445.75;5301421;27;35038;-81
2023/06/11 03:31:59;;;;;;;;;;;;;;;22.87;53.30;99460.47;5301125;27;33190;-80
2023/06/11 03:34:26;;;;;;;;;;;;;;;22.57;54.81;99451.78;5282634;27;32977;-81
2023/06/11 03:36:55;;;;;;;;;;;;;;;22.64;54.48;99458.22;5283847;27;33484;-81
2023/06/11 03:39:23;;;;;;;;;;;;;;;22.55;54.93;99452.91;5283131;27;33738;-80
2023/06/11 03:41:52;;;;;;;;;;;;;;;22.79;53.91;99452.31;5301310;27;33714;-81
2023/06/11 03:44:19;;;;;;;;;;;;;;;22.57;54.50;99457.16;5319957;27;34948;-81
2023/06/11 03:46:47;;;;;;;;;;;;;;;22.73;54.33;99457.31;5282839;27;33148;-81
2023/06/11 03:49:15;;;;;;;;;;;;;;;22.90;53.39;99452.13;5301816;27;34453;-82
2023/06/11 03:51:42;;;;;;;;;;;;;;;22.81;53.55;99463.78;5282995;27;32583;-81
2023/06/11 03:54:10;;;;;;;;;;;;;;;22.65;54.16;99459.09;5300809;27;33351;-81
2023/06/11 03:56:37;;;;;;;;;;;;;;;22.53;54.19;99465.69;5300685;27;34591;-81
2023/06/11 03:59:05;;;;;;;;;;;;;;;22.75;53.70;99460.72;5301527;27;34950;-81
2023/06/11 04:01:33;;;;;;;;;;;;;;;22.97;53.30;99458.56;5283341;27;33079;-81
2023/06/11 04:04:02;;;;;;;;;;;;;;;22.94;53.38;99464.28;5319483;27;33302;-81
2023/06/11 04:06:35;;;;;;;;;;;;;;;22.94;53.48;99458.91;5301567;27;33313;-80
2023/06/11 04:09:03;;;;;;;;;;;;;;;23.05;53.29;99461.34;5319317;27;33519;-81
2023/06/11 04:11:31;;;;;;;;;;;;;;;23.06;53.32;99465.72;5301103;27;33464;-81
2023/06/11 04:13:58;;;;;;;;;;;;;;;23.09;53.24;99465.44;5282524;27;32995;-81
2023/06/11 04:16:26;;;;;;;;;;;;;;;22.93;53.85;99478.72;5300720;27;34190;-81
2023/06/11 04:18:54;;;;;;;;;;;;;;;23.18;53.34;99469.03;5282770;27;32997;-81
2023/06/11 04:21:21;;;;;;;;;;;;;;;23.21;52.78;99474.94;5301143;27;33357;-81
2023/06/11 04:23:49;;;;;;;;;;;;;;;23.07;53.82;99464.72;5283036;27;33930;-82
2023/06/11 04:26:19;;;;;;;;;;;;;;;22.92;54.70;99477.03;5302074;27;33895;-81
2023/06/11 04:28:48;;;;;;;;;;;;;;;22.88;54.16;99481.00;5320344;27;33395;-81
2023/06/11 04:31:16;;;;;;;;;;;;;;;22.75;54.94;99482.25;5302118;27;34155;-80
2023/06/11 04:33:46;;;;;;;;;;;;;;;22.89;54.50;99471.97;5320626;27;34572;-80
2023/06/11 04:36:13;;;;;;;;;;;;;;;23.14;53.65;99476.59;5302272;27;33510;-80
2023/06/11 04:38:44;;;;;;;;;;;;;;;23.39;51.40;99482.16;5302598;27;33951;-80
2023/06/11 04:41:13;;;;;;;;;;;;;;;22.89;53.80;99488.13;5302420;27;32753;-80
2023/06/11 04:43:42;;;;;;;;;;;;;;;23.12;52.17;99478.59;5302170;27;33465;-80
2023/06/11 04:46:10;;;;;;;;;;;;;;;23.05;52.93;99477.50;5320317;27;33999;-81
2023/06/11 04:48:37;;;;;;;;;;;;;;;22.91;53.61;99483.44;5301071;27;34276;-81
2023/06/11 04:51:06;;;;;;;;;;;;;;;23.08;53.66;99479.06;5320390;27;33372;-80
2023/06/11 04:53:37;;;;;;;;;;;;;;;23.11;53.22;99478.72;5320035;27;33947;-81
2023/06/11 04:56:04;;;;;;;;;;;;;;;23.10;52.99;99477.88;5302740;27;32715;-80
2023/06/11 04:58:33;;;;;;;;;;;;;;;22.83;53.61;99486.84;5301624;27;33520;-81
2023/06/11 05:01:01;;;;;;;;;;;;;;;23.10;52.77;99477.88;5301864;27;33281;-81
2023/06/11 05:03:31;;;;;;;;;;;;;;;23.09;53.53;99478.91;5301699;27;33581;-81
2023/06/11 05:05:59;;;;;;;;;;;;;;;23.04;53.50;99473.13;5302322;27;35073;-81
2023/06/11 05:08:28;;;;;;;;;;;;;;;23.44;51.98;99478.00;5301755;27;33270;-81
2023/06/11 05:10:57;;;;;;;;;;;;;;;23.27;52.49;99478.88;5302038;27;33602;-81
2023/06/11 05:13:25;;;;;;;;;;;;;;;23.31;52.79;99476.69;5302598;27;33983;-80
2023/06/11 05:15:55;;;;;;;;;;;;;;;23.39;53.05;99476.78;5299628;27;34144;-81
2023/06/11 05:18:26;;;;;;;;;;;;;;;23.56;52.42;99475.91;5299214;27;34200;-81
2023/06/11 05:20:55;;;;;;;;;;;;;;;23.44;52.09;99487.91;5298935;27;32800;-81
2023/06/11 05:23:28;;;;;;;;;;;;;;;23.55;51.99;99485.00;5317666;27;33683;-81
2023/06/11 05:26:01;;;;;;;;;;;;;;;23.51;52.61;99484.47;5299682;27;33644;-81
2023/06/11 05:28:30;;;;;;;;;;;;;;;23.90;51.69;99481.34;5282065;27;33099;-81
2023/06/11 05:30:59;;;;;;;;;;;;;;;24.03;50.68;99480.94;5280625;27;33576;-80
2023/06/11 05:33:26;;;;;;;;;;;;;;;23.77;52.71;99478.25;5317850;27;34109;-80
2023/06/11 05:35:54;;;;;;;;;;;;;;;23.50;52.48;99481.94;5316905;27;34007;-80
2023/06/11 05:38:24;;;;;;;;;;;;;;;23.83;52.01;99479.44;5299286;27;33291;-80
2023/06/11 05:40:51;;;;;;;;;;;;;;;23.83;52.06;99482.16;5319060;27;33137;-80
2023/06/11 05:43:19;;;;;;;;;;;;;;;23.89;51.73;99493.16;5280918;27;33340;-80
2023/06/11 05:45:50;;;;;;;;;;;;;;;24.08;52.40;99486.69;5279888;27;34587;-80
2023/06/11 05:48:18;;;;;;;;;;;;;;;24.10;51.17;99491.91;5299344;27;33185;-80
2023/06/11 05:50:45;;;;;;;;;;;;;;;23.70;51.12;99494.22;5319054;27;33018;-81
2023/06/11 05:53:13;;;;;;;;;;;;;;;23.92;50.73;99491.97;5299063;27;33620;-81
2023/06/11 05:55:41;;;;;;;;;;;;;;;24.15;50.37;99485.00;5298891;27;34761;-81
2023/06/11 05:58:09;;;;;;;;;;;;;;;24.46;49.17;99484.50;5299213;27;33942;-81
2023/06/11 06:00:37;;;;;;;;;;;;;;;24.62;48.36;99495.34;5299356;27;33390;-80
2023/06/11 06:03:05;;;;;;;;;;;;;;;24.80;48.68;99494.38;5298117;27;33176;-80
2023/06/11 06:05:33;;;;;;;;;;;;;;;24.67;49.06;99497.56;5317837;27;34512;-80
2023/06/11 06:08:01;;;;;;;;;;;;;;;24.68;48.27;99493.84;5296050;27;33638;-81
2023/06/11 06:10:28;;;;;;;;;;;;;;;25.02;47.97;99502.69;5279516;27;31783;-80
2023/06/11 06:12:56;;;;;;;;;;;;;;;24.74;47.75;99499.44;5279413;27;34532;-81
2023/06/11 06:15:24;;;;;;;;;;;;;;;24.81;48.32;99502.31;5316436;27;34029;-80
2023/06/11 06:17:53;;;;;;;;;;;;;;;24.74;48.71;99507.53;5316961;27;33834;-80
2023/06/11 06:20:21;;;;;;;;;;;;;;;23.95;49.46;99505.16;5298930;27;33723;-80
2023/06/11 06:22:48;;;;;;;;;;;;;;;24.34;49.07;99501.97;5277623;27;33689;-80
2023/06/11 06:25:17;;;;;;;;;;;;;;;24.06;49.68;99504.87;5279703;27;33520;-81
2023/06/11 06:27:45;;;;;;;;;;;;;;;24.47;49.83;99507.78;5279159;27;32937;-78
2023/06/11 06:30:13;;;;;;;;;;;;;;;24.38;49.91;99500.66;5280308;27;32991;-78
2023/06/11 06:32:43;;;;;;;;;;;;;;;24.37;51.08;99507.06;5298881;27;33682;-79
2023/06/11 06:35:12;;;;;;;;;;;;;;;24.28;49.85;99503.47;5298789;27;33623;-80
2023/06/11 06:37:40;;;;;;;;;;;;;;;24.76;49.43;99512.75;5315976;27;34863;-79
2023/06/11 06:40:08;;;;;;;;;;;;;;;24.83;48.75;99516.50;5280009;27;33214;-80
2023/06/11 06:42:37;;;;;;;;;;;;;;;24.10;49.14;99511.63;5297735;27;34510;-80
2023/06/11 06:45:05;;;;;;;;;;;;;;;24.54;48.70;99508.81;5297755;27;33075;-80
2023/06/11 06:47:33;;;;;;;;;;;;;;;24.20;50.26;99516.91;5298642;27;33500;-80
2023/06/11 06:50:01;;;;;;;;;;;;;;;24.11;51.16;99513.31;5298369;27;33285;-80
2023/06/11 06:52:29;;;;;;;;;;;;;;;24.58;50.16;99522.84;5280520;27;33242;-80
2023/06/11 06:54:57;;;;;;;;;;;;;;;24.47;50.59;99519.44;5298074;27;32908;-80
2023/06/11 06:57:25;;;;;;;;;;;;;;;24.42;50.12;99516.38;5278661;27;33504;-80
2023/06/11 06:59:53;;;;;;;;;;;;;;;24.41;49.51;99524.62;5314743;27;32573;-80
2023/06/11 07:02:22;;;;;;;;;;;;;;;24.55;48.87;99515.91;5280704;27;35086;-81
2023/06/11 07:04:51;;;;;;;;;;;;;;;24.89;48.55;99518.53;5280267;27;33195;-80
2023/06/11 07:07:18;;;;;;;;;;;;;;;24.89;47.30;99523.09;5316008;27;34471;-80
2023/06/11 07:09:48;;;;;;;;;;;;;;;24.09;50.74;99523.44;5298500;27;34144;-80
2023/06/11 07:12:16;;;;;;;;;;;;;;;24.62;48.98;99522.34;5316880;27;34550;-80
2023/06/11 07:14:43;;;;;;;;;;;;;;;24.92;49.72;99529.00;5298151;27;33633;-80
2023/06/11 07:17:11;;;;;;;;;;;;;;;25.14;49.04;99527.56;5316682;27;33848;-80
2023/06/11 07:19:39;;;;;;;;;;;;;;;25.56;47.53;99526.56;5298333;27;32782;-81
2023/06/11 07:22:07;;;;;;;;;;;;;;;25.38;46.80;99534.00;5297924;27;33987;-81
2023/06/11 07:24:35;;;;;;;;;;;;;;;25.22;46.63;99522.16;5299479;27;34190;-79
2023/06/11 07:27:03;;;;;;;;;;;;;;;25.39;45.59;99522.16;5280331;27;32391;-80
2023/06/11 07:29:32;;;;;;;;;;;;;;;25.45;46.02;99524.22;5298068;27;31939;-81
2023/06/11 07:32:00;;;;;;;;;;;;;;;25.18;47.49;99526.22;5280087;27;34274;-80
2023/06/11 07:34:27;;;;;;;;;;;;;;;25.08;47.42;99528.22;5279642;27;33229;-79
2023/06/11 07:36:55;;;;;;;;;;;;;;;24.85;47.46;99532.53;5315186;27;35172;-79
2023/06/11 07:39:23;;;;;;;;;;;;;;;24.92;47.31;99536.25;5298260;27;33598;-79
2023/06/11 07:41:50;;;;;;;;;;;;;;;25.07;46.95;99528.34;5297435;27;34439;-79
2023/06/11 07:44:18;;;;;;;;;;;;;;;24.98;49.07;99532.91;5297467;27;34186;-79
2023/06/11 07:46:46;;;;;;;;;;;;;;;25.32;47.53;99534.66;5279773;27;33522;-80
2023/06/11 07:49:13;;;;;;;;;;;;;;;25.42;48.52;99532.62;5314142;27;32277;-80
2023/06/11 07:51:42;;;;;;;;;;;;;;;25.54;45.81;99528.56;5315588;27;33896;-80
2023/06/11 07:54:11;;;;;;;;;;;;;;;25.29;46.33;99535.84;5279519;27;33082;-80
2023/06/11 07:56:38;;;;;;;;;;;;;;;25.49;46.61;99531.81;5297167;27;33977;-79
2023/06/11 07:59:06;;;;;;;;;;;;;;;24.93;48.07;99536.09;5279437;27;32237;-79
2023/06/11 08:01:34;;;;;;;;;;;;;;;24.94;48.23;99542.34;5298011;27;33242;-80
2023/06/11 08:04:03;;;;;;;;;;;;;;;25.01;48.59;99546.06;5298940;27;35123;-80
2023/06/11 08:06:30;;;;;;;;;;;;;;;25.22;47.62;99540.25;5280568;27;32865;-79
2023/06/11 08:08:58;;;;;;;;;;;;;;;25.48;45.83;99540.06;5299487;27;32592;-80
2023/06/11 08:11:26;;;;;;;;;;;;;;;25.44;48.48;99552.22;5315916;27;33761;-80
2023/06/11 08:13:53;;;;;;;;;;;;;;;25.52;47.03;99544.97;5298703;27;33361;-80
2023/06/11 08:16:21;;;;;;;;;;;;;;;26.03;46.11;99539.38;5280516;27;33171;-79
2023/06/11 08:18:49;;;;;;;;;;;;;;;26.39;46.77;99537.03;5298164;27;33373;-79
2023/06/11 08:21:17;;;;;;;;;;;;;;;26.56;44.86;99537.88;5280663;27;34205;-79
2023/06/11 08:23:45;;;;;;;;;;;;;;;26.68;47.24;99536.47;5316291;27;34096;-80
2023/06/11 08:26:14;;;;;;;;;;;;;;;26.68;44.90;99531.03;5299225;27;34070;-80
2023/06/11 08:28:41;;;;;;;;;;;;;;;27.01;42.98;99538.97;5299820;27;32040;-80
2023/06/11 08:31:09;;;;;;;;;;;;;;;26.77;43.16;99534.53;5317665;27;33750;-83
2023/06/11 08:33:37;;;;;;;;;;;;;;;26.55;44.42;99536.19;5298970;27;33382;-83
2023/06/11 08:36:05;;;;;;;;;;;;;;;26.45;45.22;99544.53;5280540;27;33160;-85
2023/06/11 08:38:32;;;;;;;;;;;;;;;26.26;45.98;99545.72;5299222;27;32454;-82
2023/06/11 08:41:03;;;;;;;;;;;;;;;26.43;45.40;99541.13;5317188;27;33725;-82
2023/06/11 08:43:30;;;;;;;;;;;;;;;26.25;45.21;99549.47;5281189;27;34374;-82
2023/06/11 08:45:58;;;;;;;;;;;;;;;26.15;45.50;99554.22;5298902;27;34259;-82
2023/06/11 08:48:27;;;;;;;;;;;;;;;26.23;45.17;99553.34;5299678;27;32583;-82
2023/06/11 08:50:56;;;;;;;;;;;;;;;25.91;46.62;99552.41;5298402;27;33759;-81
2023/06/11 08:53:23;;;;;;;;;;;;;;;25.82;45.93;99553.41;5280379;27;33104;-82
2023/06/11 08:55:51;;;;;;;;;;;;;;;25.98;46.02;99553.41;5299226;27;32935;-82
2023/06/11 08:58:18;;;;;;;;;;;;;;;25.77;46.16;99550.38;5317628;27;32715;-82
2023/06/11 09:00:46;;;;;;;;;;;;;;;26.13;47.99;99553.53;5316941;27;33431;-82
2023/06/11 09:03:16;;;;;;;;;;;;;;;26.49;46.07;99547.69;5297671;27;33459;-83
2023/06/11 09:05:43;;;;;;;;;;;;;;;26.35;46.53;99542.97;5298515;27;32990;-82
2023/06/11 09:08:11;;;;;;;;;;;;;;;26.35;45.05;99545.69;5280602;27;33193;-82
2023/06/11 09:10:49;;;;;;;;;;;;;;;26.35;46.06;99545.69;5316924;27;34928;-82
2023/06/11 09:13:17;;;;;;;;;;;;;;;26.07;47.05;99551.53;5280280;27;35475;-83
2023/06/11 09:15:48;;;;;;;;;;;;;;;26.55;45.05;99542.44;5298662;27;34132;-85
2023/06/11 09:18:19;;;;;;;;;;;;;;;26.59;45.06;99547.47;5317283;27;33159;-81
2023/06/11 09:20:48;;;;;;;;;;;;;;;26.41;44.45;99542.31;5299104;27;34125;-82
2023/06/11 09:23:25;;;;;;;;;;;;;;;26.50;45.51;99539.41;5298585;27;34670;-82
2023/06/11 09:25:58;;;;;;;;;;;;;;;26.82;45.55;99545.69;5319543;27;34244;-80
2023/06/11 09:28:29;;;;;;;;;;;;;;;27.10;43.83;99537.91;5319621;27;33015;-81
2023/06/11 09:30:56;;;;;;;;;;;;;;;27.02;43.91;99546.09;5298694;27;34908;-81
2023/06/11 09:33:24;;;;;;;;;;;;;;;27.12;43.51;99557.56;5280782;27;32955;-81
2023/06/11 09:35:52;;;;;;;;;;;;;;;27.03;42.87;99545.06;5298620;27;34453;-81
2023/06/11 09:38:20;;;;;;;;;;;;;;;26.74;42.48;99549.28;5298084;27;33100;-81
2023/06/11 09:40:49;;;;;;;;;;;;;;;26.63;44.15;99544.25;5299330;27;34658;-80
2023/06/11 09:43:21;;;;;;;;;;;;;;;26.84;43.71;99545.53;5317400;27;35015;-80
2023/06/11 09:45:52;;;;;;;;;;;;;;;26.97;44.40;99543.91;5298689;27;34159;-81
2023/06/11 09:48:23;;;;;;;;;;;;;;;27.09;43.66;99551.66;5300283;27;32899;-81
2023/06/11 09:50:52;;;;;;;;;;;;;;;26.86;43.97;99546.16;5298567;27;33943;-81
2023/06/11 09:53:20;;;;;;;;;;;;;;;27.01;42.89;99547.09;5298812;27;32966;-81
2023/06/11 09:55:50;;;;;;;;;;;;;;;26.85;44.50;99539.91;5298498;27;34384;-80
2023/06/11 09:58:37;;;;;;;;;;;;;;;26.55;45.40;99544.31;5302354;27;32160;-81
2023/06/11 10:01:04;;;;;;;;;;;;;;;26.83;44.74;99543.84;5298330;27;33548;-80
2023/06/11 10:03:34;;;;;;;;;;;;;;;26.99;43.18;99543.72;5299450;27;34322;-81
2023/06/11 10:06:04;;;;;;;;;;;;;;;27.29;42.51;99540.16;5317140;27;34644;-80
2023/06/11 10:08:32;;;;;;;;;;;;;;;27.12;43.99;99546.72;5298901;27;32914;-80
2023/06/11 10:11:02;;;;;;;;;;;;;;;26.94;42.96;99546.97;5299240;27;34149;-80
2023/06/11 10:13:30;;;;;;;;;;;;;;;26.99;43.56;99549.16;5280874;27;34556;-80
2023/06/11 10:15:58;;;;;;;;;;;;;;;26.99;44.89;99541.84;5280644;27;33429;-80
2023/06/11 10:18:26;;;;;;;;;;;;;;;26.96;43.48;99544.06;5298941;27;32962;-80
2023/06/11 10:20:54;;;;;;;;;;;;;;;27.29;44.03;99542.84;5317292;27;33682;-80
2023/06/11 10:23:33;;;;;;;;;;;;;;;26.70;44.11;99553.38;5316982;27;34250;-80
2023/06/11 10:26:01;;;;;;;;;;;;;;;27.02;44.85;99546.09;5281449;27;33036;-80
2023/06/11 10:28:38;;;;;;;;;;;;;;;27.01;44.52;99544.37;5317643;27;33324;-80
2023/06/11 10:31:06;;;;;;;;;;;;;;;27.00;44.93;99543.53;5318516;27;33455;-80
2023/06/11 10:33:40;;;;;;;;;;;;;;;27.18;42.41;99535.16;5299056;27;34060;-80
2023/06/11 10:36:08;;;;;;;;;;;;;;;27.01;43.02;99538.97;5316775;27;35648;-80
2023/06/11 10:38:38;;;;;;;;;;;;;;;27.51;42.07;99532.19;5280487;27;32589;-80
2023/06/11 10:41:06;;;;;;;;;;;;;;;27.57;42.20;99537.72;5298762;27;33241;-80
2023/06/11 10:43:35;;;;;;;;;;;;;;;27.53;41.77;99535.56;5317410;27;34698;-80
2023/06/11 10:46:04;;;;;;;;;;;;;;;27.54;41.40;99529.13;5280571;27;33834;-81
2023/06/11 10:48:31;;;;;;;;;;;;;;;27.37;42.15;99533.00;5299050;27;32599;-80
2023/06/11 10:51:00;;;;;;;;;;;;;;;27.36;43.14;99534.03;5298998;27;34334;-80
2023/06/11 10:53:40;;;;;;;;;;;;;;;27.18;43.17;99531.59;5298160;27;34727;-80
2023/06/11 10:56:11;;;;;;;;;;;;;;;27.10;43.29;99542.50;5317296;27;35130;-80
2023/06/11 10:58:38;;;;;;;;;;;;;;;26.97;43.29;99537.66;5298506;27;33719;-80
2023/06/11 11:01:07;;;;;;;;;;;;;;;27.07;43.21;99535.56;5316815;27;33966;-80
2023/06/11 11:03:35;;;;;;;;;;;;;;;27.26;42.41;99534.28;5317091;27;35158;-80
2023/06/11 11:06:03;;;;;;;;;;;;;;;27.51;43.27;99533.03;5317036;27;33495;-80
2023/06/11 11:08:30;;;;;;;;;;;;;;;27.23;43.29;99537.31;5280052;27;33669;-80
2023/06/11 11:10:59;;;;;;;;;;;;;;;27.43;44.11;99534.97;5281533;27;34298;-80
2023/06/11 11:13:30;;;;;;;;;;;;;;;27.27;43.45;99539.50;5317614;27;34900;-80
2023/06/11 11:16:00;;;;;;;;;;;;;;;27.37;43.52;99538.41;5280883;27;33009;-80
2023/06/11 11:18:27;;;;;;;;;;;;;;;27.56;43.08;99532.50;5280760;27;32282;-80
2023/06/11 11:20:55;;;;;;;;;;;;;;;27.58;45.25;99525.00;5280856;27;33034;-80
2023/06/11 11:23:26;;;;;;;;;;;;;;;27.89;43.14;99522.19;5298676;27;33426;-80
2023/06/11 11:25:53;;;;;;;;;;;;;;;27.44;44.05;99528.50;5316018;27;33894;-80
2023/06/11 11:28:21;;;;;;;;;;;;;;;27.51;44.42;99524.06;5299013;27;33343;-81
2023/06/11 11:30:49;;;;;;;;;;;;;;;27.45;43.86;99520.22;5299016;27;33906;-81
2023/06/11 11:33:17;;;;;;;;;;;;;;;27.63;45.59;99517.19;5281075;27;34146;-82
2023/06/11 11:35:45;;;;;;;;;;;;;;;27.70;43.51;99517.28;5281485;27;33851;-82
2023/06/11 11:38:13;;;;;;;;;;;;;;;27.64;43.64;99518.88;5300312;27;32025;-81
2023/06/11 11:40:40;;;;;;;;;;;;;;;27.43;44.49;99529.53;5300059;27;34323;-81
2023/06/11 11:43:11;;;;;;;;;;;;;;;27.30;42.63;99527.47;5299441;27;32385;-82
2023/06/11 11:45:38;;;;;;;;;;;;;;;27.08;45.19;99518.28;5317962;27;34285;-82
2023/06/11 11:48:07;;;;;;;;;;;;;;;27.17;44.10;99522.63;5317934;27;32988;-81
2023/06/11 11:50:34;;;;;;;;;;;;;;;27.13;44.35;99515.88;5318500;27;34906;-81
2023/06/11 11:53:08;;;;;;;;;;;;;;;27.37;43.96;99509.44;5300177;27;34123;-81
2023/06/11 11:55:37;;;;;;;;;;;;;;;27.08;44.40;99510.16;5281472;27;34357;-81
2023/06/11 11:58:25;;;;;;;;;;;;;;;27.03;43.77;99516.09;5317625;27;31928;-81
2023/06/11 12:00:58;;;;;;;;;;;;;;;26.99;45.53;99508.50;5299219;27;33423;-81
2023/06/11 12:03:26;;;;;;;;;;;;;;;26.86;44.89;99519.06;5299999;27;34182;-81
2023/06/11 12:05:56;;;;;;;;;;;;;;;26.90;44.80;99510.41;5281697;27;33392;-81
2023/06/11 12:08:24;;;;;;;;;;;;;;;26.95;45.27;99518.00;5317407;27;32738;-81
2023/06/11 12:10:52;;;;;;;;;;;;;;;27.20;45.30;99516.84;5299387;27;33967;-81
2023/06/11 12:13:19;;;;;;;;;;;;;;;27.17;46.59;99508.25;5280502;27;32795;-81
2023/06/11 12:15:47;;;;;;;;;;;;;;;27.41;45.80;99507.22;5298278;27;33663;-81
2023/06/11 12:18:15;;;;;;;;;;;;;;;27.42;45.17;99509.72;5298431;27;33356;-81
2023/06/11 12:20:42;;;;;;;;;;;;;;;27.29;46.11;99510.31;5299327;27;33630;-81
2023/06/11 12:23:10;;;;;;;;;;;;;;;27.47;45.75;99512.72;5280217;27;33553;-80
2023/06/11 12:25:38;;;;;;;;;;;;;;;27.27;46.10;99509.69;5281180;27;32840;-81
2023/06/11 12:28:06;;;;;;;;;;;;;;;26.99;48.21;99513.91;5280203;27;32598;-81
2023/06/11 12:30:33;;;;;;;;;;;;;;;26.70;50.20;99520.03;5279801;27;32871;-82
2023/06/11 12:33:01;;;;;;;;;;;;;;;26.26;52.44;99515.97;5281185;27;32705;-82
2023/06/11 12:35:32;;;;;;;;;;;;;;;26.12;54.02;99522.09;5298852;27;33450;-82
2023/06/11 12:37:59;;;;;;;;;;;;;;;26.45;53.83;99516.59;5280924;27;33571;-82
2023/06/11 12:40:30;;;;;;;;;;;;;;;26.49;54.91;99516.06;5280694;27;33919;-82
2023/06/11 12:42:58;;;;;;;;;;;;;;;26.41;55.52;99510.66;5280788;27;32937;-82
2023/06/11 12:45:30;;;;;;;;;;;;;;;26.67;52.24;99515.78;5299484;27;34133;-81
2023/06/11 12:47:57;;;;;;;;;;;;;;;26.15;51.49;99515.47;5281333;27;32469;-81
2023/06/11 12:50:25;;;;;;;;;;;;;;;26.38;53.05;99513.69;5299999;27;33915;-82
2023/06/11 12:52:54;;;;;;;;;;;;;;;26.37;53.53;99509.31;5281672;27;33537;-82
2023/06/11 12:55:24;;;;;;;;;;;;;;;26.40;53.40;99510.84;5281900;27;33373;-81